sensor_id;sensor_type;location;lat;lon;timestamp;pressure;altitude;pressure_sealevel;temperature;humidity
60589;BME280;46421;48.610;9.334;2023-03-04T00:01:20;98541.94;;;-0.67;91.68
60589;BME280;46421;48.610;9.334;2023-03-04T00:03:45;98541.72;;;0.07;87.92
60589;BME280;46421;48.610;9.334;2023-03-04T00:06:11;98537.34;;;-0.49;90.07
60589;BME280;46421;48.610;9.334;2023-03-04T00:08:36;98536.22;;;-0.88;91.63
60589;BME280;46421;48.610;9.334;2023-03-04T00:11:02;98551.69;;;-0.85;91.62
60589;BME280;46421;48.610;9.334;2023-03-04T00:13:28;98542.72;;;-0.23;89.67
60589;BME280;46421;48.610;9.334;2023-03-04T00:15:53;98548.69;;;-0.93;90.05
60589;BME280;46421;48.610;9.334;2023-03-04T00:18:19;98550.69;;;-1.27;92.00
60589;BME280;46421;48.610;9.334;2023-03-04T00:20:45;98542.22;;;-1.16;92.13
60589;BME280;46421;48.610;9.334;2023-03-04T00:23:10;98548.31;;;-1.46;92.24
60589;BME280;46421;48.610;9.334;2023-03-04T00:25:36;98545.91;;;-1.65;93.83
60589;BME280;46421;48.610;9.334;2023-03-04T00:28:01;98536.09;;;-1.46;94.43
60589;BME280;46421;48.610;9.334;2023-03-04T00:30:26;98541.75;;;-1.08;92.93
60589;BME280;46421;48.610;9.334;2023-03-04T00:32:52;98533.81;;;-0.47;91.66
60589;BME280;46421;48.610;9.334;2023-03-04T00:35:17;98535.34;;;0.11;86.81
60589;BME280;46421;48.610;9.334;2023-03-04T00:37:42;98538.13;;;-0.19;84.93
60589;BME280;46421;48.610;9.334;2023-03-04T00:40:09;98532.84;;;-0.90;89.89
60589;BME280;46421;48.610;9.334;2023-03-04T00:42:34;98527.59;;;-1.49;93.12
60589;BME280;46421;48.610;9.334;2023-03-04T00:45:00;98530.53;;;-0.94;93.09
60589;BME280;46421;48.610;9.334;2023-03-04T00:47:25;98543.97;;;-0.72;88.21
60589;BME280;46421;48.610;9.334;2023-03-04T00:49:51;98542.66;;;-1.24;91.95
60589;BME280;46421;48.610;9.334;2023-03-04T00:52:16;98541.50;;;-1.49;93.75
60589;BME280;46421;48.610;9.334;2023-03-04T00:54:41;98536.56;;;-1.69;94.87
60589;BME280;46421;48.610;9.334;2023-03-04T00:57:07;98541.31;;;-1.15;90.89
60589;BME280;46421;48.610;9.334;2023-03-04T00:59:32;98537.56;;;-1.25;92.26
60589;BME280;46421;48.610;9.334;2023-03-04T01:01:58;98529.81;;;-1.27;94.72
60589;BME280;46421;48.610;9.334;2023-03-04T01:04:24;98538.56;;;-0.98;89.79
60589;BME280;46421;48.610;9.334;2023-03-04T01:06:49;98543.13;;;-1.32;92.94
60589;BME280;46421;48.610;9.334;2023-03-04T01:09:14;98524.81;;;-1.77;93.38
60589;BME280;46421;48.610;9.334;2023-03-04T01:11:40;98532.47;;;-1.89;95.03
60589;BME280;46421;48.610;9.334;2023-03-04T01:14:05;98534.50;;;-1.95;95.13
60589;BME280;46421;48.610;9.334;2023-03-04T01:16:30;98529.19;;;-1.93;95.90
60589;BME280;46421;48.610;9.334;2023-03-04T01:18:56;98532.72;;;-1.94;94.74
60589;BME280;46421;48.610;9.334;2023-03-04T01:21:21;98531.19;;;-1.82;96.64
60589;BME280;46421;48.610;9.334;2023-03-04T01:23:46;98537.09;;;-1.79;95.02
60589;BME280;46421;48.610;9.334;2023-03-04T01:26:12;98522.47;;;-2.13;96.04
60589;BME280;46421;48.610;9.334;2023-03-04T01:28:37;98535.19;;;-2.07;96.87
60589;BME280;46421;48.610;9.334;2023-03-04T01:31:02;98515.50;;;-1.81;94.42
60589;BME280;46421;48.610;9.334;2023-03-04T01:33:28;98528.53;;;-1.97;95.08
60589;BME280;46421;48.610;9.334;2023-03-04T01:35:54;98529.56;;;-2.15;96.41
60589;BME280;46421;48.610;9.334;2023-03-04T01:38:19;98524.16;;;-1.80;95.70
60589;BME280;46421;48.610;9.334;2023-03-04T01:40:44;98526.78;;;-2.12;94.59
60589;BME280;46421;48.610;9.334;2023-03-04T01:43:17;98538.47;;;-2.03;95.35
60589;BME280;46421;48.610;9.334;2023-03-04T01:45:44;98520.81;;;-1.98;97.13
60589;BME280;46421;48.610;9.334;2023-03-04T01:48:12;98515.09;;;-2.05;95.12
60589;BME280;46421;48.610;9.334;2023-03-04T01:50:40;98518.97;;;-2.12;95.71
60589;BME280;46421;48.610;9.334;2023-03-04T01:53:06;98521.25;;;-2.22;96.74
60589;BME280;46421;48.610;9.334;2023-03-04T01:55:31;98510.78;;;-1.90;96.94
60589;BME280;46421;48.610;9.334;2023-03-04T01:57:57;98512.72;;;-1.02;91.95
60589;BME280;46421;48.610;9.334;2023-03-04T02:00:31;98513.91;;;-1.53;90.83
60589;BME280;46421;48.610;9.334;2023-03-04T02:02:57;98513.50;;;-2.08;92.90
60589;BME280;46421;48.610;9.334;2023-03-04T02:05:24;98517.81;;;-2.23;95.88
60589;BME280;46421;48.610;9.334;2023-03-04T02:07:52;98508.19;;;-2.06;96.29
60589;BME280;46421;48.610;9.334;2023-03-04T02:10:19;98513.06;;;-2.16;96.30
60589;BME280;46421;48.610;9.334;2023-03-04T02:12:44;98512.81;;;-2.11;95.12
60589;BME280;46421;48.610;9.334;2023-03-04T02:15:10;98496.97;;;-2.23;96.59
60589;BME280;46421;48.610;9.334;2023-03-04T02:17:36;98514.53;;;-2.26;96.91
60589;BME280;46421;48.610;9.334;2023-03-04T02:20:17;98506.94;;;-2.15;95.86
60589;BME280;46421;48.610;9.334;2023-03-04T02:25:28;98505.47;;;-1.72;92.23
60589;BME280;46421;48.610;9.334;2023-03-04T02:27:55;98502.09;;;-2.21;94.98
60589;BME280;46421;48.610;9.334;2023-03-04T02:30:22;98505.13;;;-1.66;94.50
60589;BME280;46421;48.610;9.334;2023-03-04T02:32:50;98507.94;;;-0.96;89.32
60589;BME280;46421;48.610;9.334;2023-03-04T02:35:16;98508.38;;;-1.63;91.72
60589;BME280;46421;48.610;9.334;2023-03-04T02:37:43;98496.59;;;-2.00;91.35
60589;BME280;46421;48.610;9.334;2023-03-04T02:40:25;98516.28;;;-2.27;94.17
60589;BME280;46421;48.610;9.334;2023-03-04T02:42:52;98502.97;;;-1.90;93.07
60589;BME280;46421;48.610;9.334;2023-03-04T02:45:34;98515.94;;;-2.20;92.91
60589;BME280;46421;48.610;9.334;2023-03-04T02:48:00;98512.19;;;-2.31;93.33
60589;BME280;46421;48.610;9.334;2023-03-04T02:50:29;98514.94;;;-2.34;95.41
60589;BME280;46421;48.610;9.334;2023-03-04T02:52:57;98518.59;;;-2.54;95.12
60589;BME280;46421;48.610;9.334;2023-03-04T02:55:22;98520.66;;;-2.27;95.89
60589;BME280;46421;48.610;9.334;2023-03-04T02:57:48;98511.47;;;-2.50;96.13
60589;BME280;46421;48.610;9.334;2023-03-04T03:00:13;98515.91;;;-2.52;96.04
60589;BME280;46421;48.610;9.334;2023-03-04T03:02:39;98519.47;;;-2.38;96.15
60589;BME280;46421;48.610;9.334;2023-03-04T03:05:04;98518.13;;;-2.61;96.05
60589;BME280;46421;48.610;9.334;2023-03-04T03:07:30;98524.16;;;-2.60;96.56
60589;BME280;46421;48.610;9.334;2023-03-04T03:09:55;98519.94;;;-2.63;98.03
60589;BME280;46421;48.610;9.334;2023-03-04T03:12:21;98516.38;;;-2.78;98.14
60589;BME280;46421;48.610;9.334;2023-03-04T03:14:46;98513.78;;;-3.11;98.17
60589;BME280;46421;48.610;9.334;2023-03-04T03:17:11;98515.25;;;-2.56;95.14
60589;BME280;46421;48.610;9.334;2023-03-04T03:19:37;98511.22;;;-2.62;96.29
60589;BME280;46421;48.610;9.334;2023-03-04T03:22:02;98521.88;;;-2.66;95.09
60589;BME280;46421;48.610;9.334;2023-03-04T03:24:27;98523.41;;;-2.80;96.08
60589;BME280;46421;48.610;9.334;2023-03-04T03:26:53;98515.91;;;-2.68;97.27
60589;BME280;46421;48.610;9.334;2023-03-04T03:29:18;98514.06;;;-2.66;96.53
60589;BME280;46421;48.610;9.334;2023-03-04T03:31:43;98519.63;;;-2.57;95.38
60589;BME280;46421;48.610;9.334;2023-03-04T03:34:09;98514.88;;;-2.82;95.44
60589;BME280;46421;48.610;9.334;2023-03-04T03:36:34;98520.41;;;-2.88;97.03
60589;BME280;46421;48.610;9.334;2023-03-04T03:38:59;98517.19;;;-2.93;97.78
60589;BME280;46421;48.610;9.334;2023-03-04T03:41:25;98518.78;;;-2.91;98.31
60589;BME280;46421;48.610;9.334;2023-03-04T03:43:50;98523.16;;;-2.91;96.22
60589;BME280;46421;48.610;9.334;2023-03-04T03:46:16;98513.31;;;-3.02;97.03
60589;BME280;46421;48.610;9.334;2023-03-04T03:48:41;98513.66;;;-2.92;97.48
60589;BME280;46421;48.610;9.334;2023-03-04T03:51:06;98515.38;;;-3.09;97.08
60589;BME280;46421;48.610;9.334;2023-03-04T03:53:31;98505.28;;;-3.15;97.74
60589;BME280;46421;48.610;9.334;2023-03-04T03:55:57;98508.03;;;-3.00;96.53
60589;BME280;46421;48.610;9.334;2023-03-04T03:58:23;98510.81;;;-3.04;96.03
60589;BME280;46421;48.610;9.334;2023-03-04T04:00:48;98518.03;;;-2.93;96.50
60589;BME280;46421;48.610;9.334;2023-03-04T04:03:14;98513.88;;;-2.63;94.94
60589;BME280;46421;48.610;9.334;2023-03-04T04:05:40;98520.09;;;-2.82;95.83
60589;BME280;46421;48.610;9.334;2023-03-04T04:08:05;98518.28;;;-2.97;96.05
60589;BME280;46421;48.610;9.334;2023-03-04T04:10:30;98522.06;;;-2.87;95.45
60589;BME280;46421;48.610;9.334;2023-03-04T04:12:56;98522.19;;;-3.06;95.61
60589;BME280;46421;48.610;9.334;2023-03-04T04:15:21;98530.06;;;-2.90;95.58
60589;BME280;46421;48.610;9.334;2023-03-04T04:17:46;98514.94;;;-3.17;96.40
60589;BME280;46421;48.610;9.334;2023-03-04T04:20:12;98522.00;;;-3.19;97.20
60589;BME280;46421;48.610;9.334;2023-03-04T04:22:37;98506.59;;;-2.41;94.50
60589;BME280;46421;48.610;9.334;2023-03-04T04:25:03;98507.97;;;-2.33;92.52
60589;BME280;46421;48.610;9.334;2023-03-04T04:27:29;98510.72;;;-2.36;94.33
60589;BME280;46421;48.610;9.334;2023-03-04T04:29:54;98496.91;;;-1.75;89.38
60589;BME280;46421;48.610;9.334;2023-03-04T04:32:19;98511.66;;;-2.05;90.86
60589;BME280;46421;48.610;9.334;2023-03-04T04:34:45;98514.84;;;-2.64;92.80
60589;BME280;46421;48.610;9.334;2023-03-04T04:37:10;98523.00;;;-2.88;95.15
60589;BME280;46421;48.610;9.334;2023-03-04T04:39:36;98523.94;;;-2.24;88.44
60589;BME280;46421;48.610;9.334;2023-03-04T04:42:01;98519.53;;;-2.55;90.24
60589;BME280;46421;48.610;9.334;2023-03-04T04:44:27;98519.59;;;-2.73;92.18
60589;BME280;46421;48.610;9.334;2023-03-04T04:46:52;98522.28;;;-3.25;94.01
60589;BME280;46421;48.610;9.334;2023-03-04T04:49:17;98514.44;;;-2.90;95.44
60589;BME280;46421;48.610;9.334;2023-03-04T04:51:43;98516.63;;;-3.34;95.83
60589;BME280;46421;48.610;9.334;2023-03-04T04:54:09;98526.66;;;-3.43;96.35
60589;BME280;46421;48.610;9.334;2023-03-04T04:56:34;98508.75;;;-3.50;96.10
60589;BME280;46421;48.610;9.334;2023-03-04T04:59:02;98530.69;;;-2.69;93.62
60589;BME280;46421;48.610;9.334;2023-03-04T05:01:29;98533.94;;;-2.99;92.67
60589;BME280;46421;48.610;9.334;2023-03-04T05:03:54;98524.88;;;-3.25;95.24
60589;BME280;46421;48.610;9.334;2023-03-04T05:06:22;98532.16;;;-3.32;94.83
60589;BME280;46421;48.610;9.334;2023-03-04T05:08:48;98525.88;;;-3.10;95.10
60589;BME280;46421;48.610;9.334;2023-03-04T05:11:14;98534.66;;;-3.48;95.13
60589;BME280;46421;48.610;9.334;2023-03-04T05:13:40;98518.63;;;-3.39;95.55
60589;BME280;46421;48.610;9.334;2023-03-04T05:16:06;98515.28;;;-3.58;96.96
60589;BME280;46421;48.610;9.334;2023-03-04T05:18:32;98528.47;;;-3.45;95.88
60589;BME280;46421;48.610;9.334;2023-03-04T05:20:59;98521.81;;;-3.34;95.51
60589;BME280;46421;48.610;9.334;2023-03-04T05:23:28;98521.22;;;-3.56;94.62
60589;BME280;46421;48.610;9.334;2023-03-04T05:25:53;98519.66;;;-3.08;90.95
60589;BME280;46421;48.610;9.334;2023-03-04T05:28:19;98510.31;;;-2.94;92.04
60589;BME280;46421;48.610;9.334;2023-03-04T05:30:45;98511.06;;;-3.43;93.16
60589;BME280;46421;48.610;9.334;2023-03-04T05:33:12;98521.44;;;-3.26;94.73
60589;BME280;46421;48.610;9.334;2023-03-04T05:35:39;98523.41;;;-2.46;89.09
60589;BME280;46421;48.610;9.334;2023-03-04T05:38:06;98523.72;;;-3.20;91.66
60589;BME280;46421;48.610;9.334;2023-03-04T05:40:33;98526.78;;;-3.29;91.52
60589;BME280;46421;48.610;9.334;2023-03-04T05:42:58;98529.75;;;-2.68;90.33
60589;BME280;46421;48.610;9.334;2023-03-04T05:45:25;98539.09;;;-3.33;91.61
60589;BME280;46421;48.610;9.334;2023-03-04T05:47:51;98528.41;;;-3.44;91.89
60589;BME280;46421;48.610;9.334;2023-03-04T05:50:16;98530.78;;;-3.39;93.98
60589;BME280;46421;48.610;9.334;2023-03-04T05:52:42;98527.03;;;-3.69;93.35
60589;BME280;46421;48.610;9.334;2023-03-04T05:55:07;98523.47;;;-3.85;95.44
60589;BME280;46421;48.610;9.334;2023-03-04T05:57:33;98538.69;;;-3.95;96.72
60589;BME280;46421;48.610;9.334;2023-03-04T05:59:58;98533.78;;;-3.84;95.41
60589;BME280;46421;48.610;9.334;2023-03-04T06:02:23;98531.88;;;-3.80;97.23
60589;BME280;46421;48.610;9.334;2023-03-04T06:04:49;98535.66;;;-3.86;96.50
60589;BME280;46421;48.610;9.334;2023-03-04T06:07:14;98540.84;;;-3.86;96.64
60589;BME280;46421;48.610;9.334;2023-03-04T06:09:40;98547.81;;;-3.69;96.35
60589;BME280;46421;48.610;9.334;2023-03-04T06:12:05;98555.16;;;-3.59;95.74
60589;BME280;46421;48.610;9.334;2023-03-04T06:14:31;98552.09;;;-3.68;95.49
60589;BME280;46421;48.610;9.334;2023-03-04T06:16:56;98554.06;;;-3.73;96.56
60589;BME280;46421;48.610;9.334;2023-03-04T06:19:21;98558.72;;;-3.79;95.28
60589;BME280;46421;48.610;9.334;2023-03-04T06:21:47;98565.94;;;-3.50;95.67
60589;BME280;46421;48.610;9.334;2023-03-04T06:24:12;98572.16;;;-3.52;92.56
60589;BME280;46421;48.610;9.334;2023-03-04T06:26:38;98573.06;;;-3.53;93.77
60589;BME280;46421;48.610;9.334;2023-03-04T06:29:06;98572.59;;;-3.61;93.24
60589;BME280;46421;48.610;9.334;2023-03-04T06:31:31;98566.25;;;-3.56;94.60
60589;BME280;46421;48.610;9.334;2023-03-04T06:33:57;98575.66;;;-3.53;93.58
60589;BME280;46421;48.610;9.334;2023-03-04T06:36:22;98575.69;;;-3.36;93.70
60589;BME280;46421;48.610;9.334;2023-03-04T06:38:47;98580.34;;;-3.25;93.59
60589;BME280;46421;48.610;9.334;2023-03-04T06:41:13;98583.22;;;-2.78;90.81
60589;BME280;46421;48.610;9.334;2023-03-04T06:43:38;98586.81;;;-2.47;89.99
60589;BME280;46421;48.610;9.334;2023-03-04T06:46:08;98591.66;;;-2.08;86.31
60589;BME280;46421;48.610;9.334;2023-03-04T06:48:33;98591.84;;;-2.11;84.46
60589;BME280;46421;48.610;9.334;2023-03-04T06:51:05;98601.31;;;-1.78;84.60
60589;BME280;46421;48.610;9.334;2023-03-04T06:53:30;98605.19;;;-1.85;83.53
60589;BME280;46421;48.610;9.334;2023-03-04T06:55:56;98604.00;;;-1.47;83.72
60589;BME280;46421;48.610;9.334;2023-03-04T06:58:21;98590.50;;;-1.39;82.19
60589;BME280;46421;48.610;9.334;2023-03-04T07:00:47;98597.69;;;-1.13;81.47
60589;BME280;46421;48.610;9.334;2023-03-04T07:03:12;98594.97;;;-1.11;81.14
60589;BME280;46421;48.610;9.334;2023-03-04T07:05:37;98604.13;;;-0.59;78.62
60589;BME280;46421;48.610;9.334;2023-03-04T07:08:03;98600.03;;;0.22;75.93
60589;BME280;46421;48.610;9.334;2023-03-04T07:10:28;98603.13;;;0.29;73.68
60589;BME280;46421;48.610;9.334;2023-03-04T07:12:53;98603.81;;;0.45;73.92
60589;BME280;46421;48.610;9.334;2023-03-04T07:15:19;98613.09;;;1.04;71.25
60589;BME280;46421;48.610;9.334;2023-03-04T07:17:44;98608.63;;;1.19;70.96
60589;BME280;46421;48.610;9.334;2023-03-04T07:20:10;98611.06;;;0.95;72.32
60589;BME280;46421;48.610;9.334;2023-03-04T07:22:35;98615.28;;;0.57;74.67
60589;BME280;46421;48.610;9.334;2023-03-04T07:25:01;98611.50;;;-0.08;79.10
60589;BME280;46421;48.610;9.334;2023-03-04T07:27:26;98617.19;;;-0.30;82.85
60589;BME280;46421;48.610;9.334;2023-03-04T07:29:52;98626.16;;;-0.63;83.68
60589;BME280;46421;48.610;9.334;2023-03-04T07:32:17;98623.28;;;-0.89;86.17
60589;BME280;46421;48.610;9.334;2023-03-04T07:34:42;98628.47;;;-1.03;87.14
60589;BME280;46421;48.610;9.334;2023-03-04T07:37:08;98620.44;;;-1.00;88.75
60589;BME280;46421;48.610;9.334;2023-03-04T07:39:33;98633.25;;;-0.96;88.04
60589;BME280;46421;48.610;9.334;2023-03-04T07:41:58;98632.28;;;-0.78;89.11
60589;BME280;46421;48.610;9.334;2023-03-04T07:44:24;98632.19;;;-0.77;89.36
60589;BME280;46421;48.610;9.334;2023-03-04T07:46:49;98641.06;;;-0.65;89.53
60589;BME280;46421;48.610;9.334;2023-03-04T07:49:14;98637.25;;;-0.90;90.51
60589;BME280;46421;48.610;9.334;2023-03-04T07:51:40;98640.41;;;-0.54;89.21
60589;BME280;46421;48.610;9.334;2023-03-04T07:54:05;98636.34;;;-0.44;89.24
60589;BME280;46421;48.610;9.334;2023-03-04T07:56:32;98634.16;;;-0.52;89.11
60589;BME280;46421;48.610;9.334;2023-03-04T07:58:58;98644.50;;;-0.65;90.11
60589;BME280;46421;48.610;9.334;2023-03-04T08:01:29;98640.72;;;-0.89;91.68
60589;BME280;46421;48.610;9.334;2023-03-04T08:03:55;98643.25;;;-0.88;91.96
60589;BME280;46421;48.610;9.334;2023-03-04T08:06:21;98648.69;;;-0.62;92.11
60589;BME280;46421;48.610;9.334;2023-03-04T08:08:47;98651.34;;;-0.33;91.75
60589;BME280;46421;48.610;9.334;2023-03-04T08:11:15;98654.03;;;-0.35;89.51
60589;BME280;46421;48.610;9.334;2023-03-04T08:13:42;98653.41;;;-0.24;90.18
60589;BME280;46421;48.610;9.334;2023-03-04T08:16:12;98647.97;;;-0.06;91.52
60589;BME280;46421;48.610;9.334;2023-03-04T08:18:40;98652.56;;;-0.10;89.95
60589;BME280;46421;48.610;9.334;2023-03-04T08:21:10;98653.09;;;-0.19;90.26
60589;BME280;46421;48.610;9.334;2023-03-04T08:23:36;98654.78;;;-0.33;90.85
60589;BME280;46421;48.610;9.334;2023-03-04T08:26:11;98657.22;;;-0.15;90.41
60589;BME280;46421;48.610;9.334;2023-03-04T08:28:38;98660.78;;;-0.16;91.16
60589;BME280;46421;48.610;9.334;2023-03-04T08:31:04;98667.78;;;0.12;89.69
60589;BME280;46421;48.610;9.334;2023-03-04T08:33:30;98666.09;;;0.11;89.47
60589;BME280;46421;48.610;9.334;2023-03-04T08:35:56;98665.56;;;-0.08;89.62
60589;BME280;46421;48.610;9.334;2023-03-04T08:38:21;98672.38;;;-0.06;89.94
60589;BME280;46421;48.610;9.334;2023-03-04T08:40:51;98671.41;;;-0.34;92.70
60589;BME280;46421;48.610;9.334;2023-03-04T08:43:17;98667.84;;;-0.33;93.78
60589;BME280;46421;48.610;9.334;2023-03-04T08:45:42;98666.28;;;-0.06;91.57
60589;BME280;46421;48.610;9.334;2023-03-04T08:48:08;98667.78;;;-0.02;92.61
60589;BME280;46421;48.610;9.334;2023-03-04T08:50:34;98671.06;;;0.02;91.00
60589;BME280;46421;48.610;9.334;2023-03-04T08:52:59;98671.34;;;-0.18;92.76
60589;BME280;46421;48.610;9.334;2023-03-04T08:55:25;98670.94;;;-0.26;92.43
60589;BME280;46421;48.610;9.334;2023-03-04T08:57:50;98677.22;;;-0.14;93.94
60589;BME280;46421;48.610;9.334;2023-03-04T09:00:16;98681.13;;;0.08;91.15
60589;BME280;46421;48.610;9.334;2023-03-04T09:02:41;98678.84;;;0.30;89.76
60589;BME280;46421;48.610;9.334;2023-03-04T09:05:07;98686.84;;;0.56;88.72
60589;BME280;46421;48.610;9.334;2023-03-04T09:07:32;98683.38;;;0.83;89.67
60589;BME280;46421;48.610;9.334;2023-03-04T09:09:58;98686.38;;;0.50;89.79
60589;BME280;46421;48.610;9.334;2023-03-04T09:12:23;98679.72;;;0.31;89.68
60589;BME280;46421;48.610;9.334;2023-03-04T09:14:49;98680.72;;;0.28;90.79
60589;BME280;46421;48.610;9.334;2023-03-04T09:17:14;98682.94;;;0.49;90.12
60589;BME280;46421;48.610;9.334;2023-03-04T09:19:39;98677.72;;;0.49;89.98
60589;BME280;46421;48.610;9.334;2023-03-04T09:22:05;98686.34;;;0.64;89.99
60589;BME280;46421;48.610;9.334;2023-03-04T09:24:30;98680.31;;;0.49;89.28
60589;BME280;46421;48.610;9.334;2023-03-04T09:26:56;98685.88;;;0.30;91.05
60589;BME280;46421;48.610;9.334;2023-03-04T09:29:21;98684.50;;;0.10;92.48
60589;BME280;46421;48.610;9.334;2023-03-04T09:31:46;98684.88;;;0.87;89.38
60589;BME280;46421;48.610;9.334;2023-03-04T09:34:12;98686.06;;;1.75;81.91
60589;BME280;46421;48.610;9.334;2023-03-04T09:36:38;98698.38;;;1.74;82.98
60589;BME280;46421;48.610;9.334;2023-03-04T09:39:04;98686.13;;;1.22;85.96
60589;BME280;46421;48.610;9.334;2023-03-04T09:41:37;98684.66;;;1.18;86.33
60589;BME280;46421;48.610;9.334;2023-03-04T09:44:12;98689.00;;;1.04;86.63
60589;BME280;46421;48.610;9.334;2023-03-04T09:46:40;98687.97;;;1.07;87.79
60589;BME280;46421;48.610;9.334;2023-03-04T09:49:06;98693.66;;;1.67;84.84
60589;BME280;46421;48.610;9.334;2023-03-04T09:54:31;98691.63;;;1.96;82.42
60589;BME280;46421;48.610;9.334;2023-03-04T09:57:50;98690.59;;;1.73;83.48
60589;BME280;46421;48.610;9.334;2023-03-04T10:00:44;98687.94;;;2.12;80.49
60589;BME280;46421;48.610;9.334;2023-03-04T10:03:14;98690.28;;;1.90;82.38
60589;BME280;46421;48.610;9.334;2023-03-04T10:05:52;98693.75;;;2.17;80.36
60589;BME280;46421;48.610;9.334;2023-03-04T10:08:30;98681.16;;;2.09;82.18
60589;BME280;46421;48.610;9.334;2023-03-04T10:10:59;98676.00;;;1.56;81.91
60589;BME280;46421;48.610;9.334;2023-03-04T10:13:27;98681.59;;;1.51;82.95
60589;BME280;46421;48.610;9.334;2023-03-04T10:15:58;98682.72;;;1.60;83.43
60589;BME280;46421;48.610;9.334;2023-03-04T10:18:46;98680.00;;;1.36;84.05
60589;BME280;46421;48.610;9.334;2023-03-04T10:21:19;98688.91;;;2.11;79.00
60589;BME280;46421;48.610;9.334;2023-03-04T10:23:48;98675.28;;;1.80;81.52
60589;BME280;46421;48.610;9.334;2023-03-04T10:26:16;98684.31;;;2.01;81.72
60589;BME280;46421;48.610;9.334;2023-03-04T10:28:42;98678.34;;;1.48;83.29
60589;BME280;46421;48.610;9.334;2023-03-04T10:33:34;98675.31;;;2.80;76.10
60589;BME280;46421;48.610;9.334;2023-03-04T10:36:26;98686.25;;;2.24;80.71
60589;BME280;46421;48.610;9.334;2023-03-04T10:41:28;98673.19;;;1.59;84.22
60589;BME280;46421;48.610;9.334;2023-03-04T10:44:00;98676.56;;;1.74;82.99
60589;BME280;46421;48.610;9.334;2023-03-04T10:46:25;98679.34;;;1.45;83.60
60589;BME280;46421;48.610;9.334;2023-03-04T10:48:52;98669.09;;;2.07;81.14
60589;BME280;46421;48.610;9.334;2023-03-04T10:51:24;98680.94;;;2.25;81.23
60589;BME280;46421;48.610;9.334;2023-03-04T10:53:56;98672.41;;;2.72;76.95
60589;BME280;46421;48.610;9.334;2023-03-04T10:56:33;98658.38;;;2.60;75.90
60589;BME280;46421;48.610;9.334;2023-03-04T10:59:24;98660.88;;;2.61;78.37
60589;BME280;46421;48.610;9.334;2023-03-04T11:01:53;98666.25;;;2.84;76.24
60589;BME280;46421;48.610;9.334;2023-03-04T11:04:22;98665.31;;;2.96;73.57
60589;BME280;46421;48.610;9.334;2023-03-04T11:06:50;98663.53;;;2.73;75.16
60589;BME280;46421;48.610;9.334;2023-03-04T11:09:42;98660.22;;;3.30;70.58
60589;BME280;46421;48.610;9.334;2023-03-04T11:12:13;98659.94;;;3.22;72.58
60589;BME280;46421;48.610;9.334;2023-03-04T11:14:46;98659.47;;;3.28;71.25
60589;BME280;46421;48.610;9.334;2023-03-04T11:17:41;98648.03;;;2.69;74.22
60589;BME280;46421;48.610;9.334;2023-03-04T11:22:44;98633.53;;;3.71;70.47
60589;BME280;46421;48.610;9.334;2023-03-04T11:25:23;98645.53;;;3.04;74.90
60589;BME280;46421;48.610;9.334;2023-03-04T11:27:53;98635.66;;;2.83;74.83
60589;BME280;46421;48.610;9.334;2023-03-04T11:30:28;98638.19;;;2.84;74.44
60589;BME280;46421;48.610;9.334;2023-03-04T11:35:53;98633.19;;;3.28;73.95
60589;BME280;46421;48.610;9.334;2023-03-04T11:38:35;98624.09;;;3.91;68.61
60589;BME280;46421;48.610;9.334;2023-03-04T11:41:35;98631.72;;;3.13;70.04
60589;BME280;46421;48.610;9.334;2023-03-04T11:44:04;98623.63;;;2.80;70.79
60589;BME280;46421;48.610;9.334;2023-03-04T11:46:53;98623.97;;;3.23;70.66
60589;BME280;46421;48.610;9.334;2023-03-04T12:06:01;98594.28;;;3.34;69.64
60589;BME280;46421;48.610;9.334;2023-03-04T12:11:32;98591.78;;;3.55;66.13
60589;BME280;46421;48.610;9.334;2023-03-04T12:14:17;98579.91;;;4.28;65.21
60589;BME280;46421;48.610;9.334;2023-03-04T12:17:02;98574.81;;;4.16;63.46
60589;BME280;46421;48.610;9.334;2023-03-04T12:22:21;98563.22;;;3.50;65.86
60589;BME280;46421;48.610;9.334;2023-03-04T12:27:27;98561.78;;;3.35;69.42
60589;BME280;46421;48.610;9.334;2023-03-04T12:30:01;98555.09;;;3.87;68.39
60589;BME280;46421;48.610;9.334;2023-03-04T12:32:59;98551.28;;;3.57;67.73
60589;BME280;46421;48.610;9.334;2023-03-04T12:36:11;98559.25;;;3.33;69.71
60589;BME280;46421;48.610;9.334;2023-03-04T12:38:52;98541.31;;;3.15;69.22
60589;BME280;46421;48.610;9.334;2023-03-04T12:41:43;98536.91;;;3.27;69.05
60589;BME280;46421;48.610;9.334;2023-03-04T12:44:14;98541.59;;;3.80;67.66
60589;BME280;46421;48.610;9.334;2023-03-04T12:49:50;98528.22;;;3.72;67.58
60589;BME280;46421;48.610;9.334;2023-03-04T12:55:03;98525.59;;;3.27;68.78
60589;BME280;46421;48.610;9.334;2023-03-04T12:57:32;98518.50;;;3.05;68.68
60589;BME280;46421;48.610;9.334;2023-03-04T13:06:04;98522.06;;;4.06;65.67
60589;BME280;46421;48.610;9.334;2023-03-04T13:16:38;98503.56;;;4.28;64.23
60589;BME280;46421;48.610;9.334;2023-03-04T13:25:37;98486.38;;;4.13;62.55
60589;BME280;46421;48.610;9.334;2023-03-04T13:41:12;98492.41;;;5.21;58.79
60589;BME280;46421;48.610;9.334;2023-03-04T13:43:54;98494.81;;;5.65;58.77
60589;BME280;46421;48.610;9.334;2023-03-04T13:51:25;98500.75;;;5.98;57.88
60589;BME280;46421;48.610;9.334;2023-03-04T13:56:33;98501.34;;;5.30;57.56
60589;BME280;46421;48.610;9.334;2023-03-04T14:01:54;98505.94;;;5.68;59.28
60589;BME280;46421;48.610;9.334;2023-03-04T14:04:34;98500.97;;;5.13;58.50
60589;BME280;46421;48.610;9.334;2023-03-04T14:07:02;98504.13;;;4.43;59.97
60589;BME280;46421;48.610;9.334;2023-03-04T14:09:56;98495.50;;;4.41;60.81
60589;BME280;46421;48.610;9.334;2023-03-04T14:12:22;98488.59;;;4.83;60.51
60589;BME280;46421;48.610;9.334;2023-03-04T14:14:53;98498.91;;;4.86;60.23
60589;BME280;46421;48.610;9.334;2023-03-04T14:17:23;98505.72;;;4.56;61.34
60589;BME280;46421;48.610;9.334;2023-03-04T14:19:50;98496.06;;;4.78;60.53
60589;BME280;46421;48.610;9.334;2023-03-04T14:24:57;98491.56;;;4.68;61.47
60589;BME280;46421;48.610;9.334;2023-03-04T14:27:22;98491.03;;;4.53;61.77
60589;BME280;46421;48.610;9.334;2023-03-04T14:29:58;98484.25;;;4.39;62.44
60589;BME280;46421;48.610;9.334;2023-03-04T14:32:25;98488.94;;;4.36;62.25
60589;BME280;46421;48.610;9.334;2023-03-04T14:34:55;98481.13;;;4.13;62.77
60589;BME280;46421;48.610;9.334;2023-03-04T14:37:25;98477.16;;;4.19;62.88
60589;BME280;46421;48.610;9.334;2023-03-04T14:39:55;98472.69;;;4.31;61.93
60589;BME280;46421;48.610;9.334;2023-03-04T14:42:22;98474.75;;;4.27;61.98
60589;BME280;46421;48.610;9.334;2023-03-04T14:44:49;98472.16;;;4.48;61.55